Hlavní strana
METAR-TAF:

METAR-TAF

Letiště :

Bangkok, Thajsko

zeměpisná šířka: 13-54-45N, zeměpisná délka: 100-36-24E, výška: 4 m

Aktuální stav počasí

Zpráva byla vytvořena před 35 minutami, v 16:00 UTC
Jihojihovýchodní vítr 6 kt
Teplota 30°C
Vlhkost vzduchu 75%
Tlak 1009 hPa
Viditelnost 10 km a více
Skoro jasno ve výšce 2000 ft

METAR: VTBD 251600Z 16006KT 9999 FEW020 30/25 Q1009 NOSIG

Čas: 23:35 (16:35 UTC)

Předpověď počasí

Zpráva byla vytvořena před 5 hodinami a 35 minutami, v 11:00 UTC
Předpověď platná od 25 v 12 UTC do 26 v 18 UTC
Jižní vítr 8 kt
Viditelnost 10 km a více
Skoro jasno ve výšce 2000 ft
Dočasný
od 26 v 04 UTC do 26 v 12 UTC
vítr z různých směrů 10 kt
Viditelnost: 5000 m
Skoro jasno ve výšce 1800 ft, Cumulonimbus.
Polojasno ve výšce 2000 ft
Oblačno až skoro zataženo ve výšce 10000 ft
bouřka, déšť

TAF: VTBD 251100Z 2512/2618 17008KT 9999 FEW020 TEMPO 2604/2612 VRB10KT 5000 TSRA FEW018CB SCT020 BKN100

Stav a předpovědi počasí z více než 4 000 letišť (zprávy METAR a TAF).

Červené a žluté tečky na mapě představují dostupné meteorologické stanice.

Když kurzor umístíte na tečku, zobrazí se název stanice.

Pak kliknutím zobrazíte stav a předpověď počasí.

Chcete-li změnit mapu, kliknutím na zelené tlačítko se znaménkem +mapu přiblížíte, kliknutím na zelené tlačítko se znaménkem – mapu oddálíte a kliknutím na zelené šipky přejdete na sousední mapy.


METAR-TAF: